Data for 01/19/2014

Time Sea-Level Adjusted Pressure Absolute Pressure Temperature Relative Humidity Dew Point   
(mb) (inHg) (mb) (inHg) (C) (F) (%) (C) (F)
00:05 1020 30.12 849 25.07 1.8 35.3 47 -8.4 16.9
00:10 1020 30.12 849 25.07 2.4 36.3 46 -7.9 17.7
00:15 1020 30.12 849 25.07 1.8 35.3 52 -7.1 19.3
00:20 1020 30.12 849 25.07 0.7 33.2 53 -7.8 18
00:25 1020 30.12 849 25.07 0.7 33.3 55 -7.4 18.6
00:30 1020 30.12 849 25.07 0.5 32.9 53 -8.1 17.4
00:35 1020 30.12 849 25.07 1 33.9 51 -7.9 17.8
00:40 1020 30.12 849 25.07 1 33.9 52 -7.8 17.9
00:45 1020 30.12 849 25.07 1 33.8 52 -7.7 18.2
00:50 1020 30.12 849 25.07 1.1 33.9 52 -7.7 18.1
00:55 1020 30.12 849 25.07 1 33.8 53 -7.5 18.4
01:00 1020 30.12 849 25.07 1 33.8 52 -7.9 17.8
01:05 1020 30.12 849 25.07 1.6 34.9 50 -7.7 18.2
01:10 1020 30.12 849 25.07 1.6 34.9 49 -8 17.6
01:15 1020 30.12 849 25.07 2.4 36.3 46 -8 17.5
01:20 1020 30.12 849 25.07 2.1 35.8 48 -7.8 17.9
01:25 1020 30.12 849 25.07 1.5 34.7 52 -7.2 19
01:30 1020 30.12 849 25.07 0.7 33.3 54 -7.6 18.4
01:35 1020 30.12 849 25.07 0.2 32.3 56 -7.6 18.3
01:40 1020 30.12 849 25.07 0.2 32.3 51 -8.7 16.3
01:45 1020 30.12 849 25.07 1.6 34.9 50 -7.6 18.3
01:50 1020 30.12 849 25.07 1.3 34.4 48 -8.4 16.9
01:55 1020 30.12 849 25.07 1.7 35 49 -7.9 17.7
02:00 1020 30.12 849 25.07 1.2 34.2 52 -7.5 18.5
02:05 1019 30.09 849 25.07 0.9 33.7 51 -8 17.5
02:10 1019 30.09 849 25.07 1.3 34.3 49 -8.4 17
02:15 1019 30.09 849 25.07 1.7 35 47 -8.4 16.9
02:20 1019 30.09 849 25.07 1.5 34.8 50 -7.7 18.1
02:25 1019 30.09 848 25.04 1.2 34.2 51 -7.8 18
02:30 1019 30.09 848 25.04 1.4 34.5 49 -8.3 17.1
02:35 1019 30.09 848 25.04 1.4 34.5 50 -7.9 17.8
02:40 1019 30.09 848 25.04 1.4 34.5 49 -8.2 17.2
02:45 1019 30.09 849 25.07 1.5 34.7 47 -8.7 16.4
02:50 1019 30.09 849 25.07 2 35.6 46 -8.4 16.8
02:55 1019 30.09 849 25.07 2.3 36.1 45 -8.5 16.8
03:00 1019 30.09 849 25.07 2.4 36.2 46 -8 17.6
03:05 1019 30.09 849 25.07 2.1 35.7 48 -8 17.7
03:10 1019 30.09 849 25.07 1.9 35.4 49 -7.8 18
03:15 1019 30.09 849 25.07 1.6 34.9 50 -7.7 18.2
03:20 1019 30.09 849 25.07 1.3 34.4 53 -7.1 19.2
03:25 1019 30.09 849 25.07 0.4 32.7 56 -7.3 18.8
03:30 1019 30.09 849 25.07 0.2 32.3 55 -7.8 17.9
03:35 1020 30.12 849 25.07 0.3 32.6 56 -7.5 18.4
03:40 1020 30.12 849 25.07 0.2 32.4 56 -7.6 18.4
03:45 1020 30.12 849 25.07 0.1 32.1 57 -7.6 18.4
03:50 1020 30.12 849 25.07 -0.1 31.7 58 -7.4 18.6
03:55 1020 30.12 849 25.07 -0.3 31.5 57 -7.7 18.2
04:00 1020 30.12 849 25.07 -0.2 31.6 57 -7.8 18
04:05 1020 30.12 849 25.07 -0 31.9 56 -7.8 17.9
04:10 1020 30.12 849 25.07 0.1 32.1 55 -7.9 17.8
04:15 1020 30.12 849 25.07 0.5 32.9 54 -7.7 18.1
04:20 1020 30.12 849 25.07 1.2 34.2 50 -8 17.6
04:25 1020 30.12 849 25.07 1.3 34.3 50 -8 17.5
04:30 1020 30.12 849 25.07 1.2 34.2 50 -8 17.6
04:35 1020 30.12 849 25.07 1.1 34 50 -8.2 17.2
04:40 1020 30.12 849 25.07 1.1 33.9 50 -8.2 17.2
04:45 1020 30.12 849 25.07 1.2 34.1 50 -8.3 17.1
04:50 1020 30.12 849 25.07 1.1 33.9 53 -7.5 18.5
04:55 1020 30.12 849 25.07 0.9 33.6 51 -8.3 17.1
05:00 1020 30.12 849 25.07 1.1 33.9 49 -8.6 16.6
05:05 1020 30.12 849 25.07 1.4 34.5 49 -8.2 17.2
05:10 1020 30.12 849 25.07 1.3 34.4 50 -7.9 17.7
05:15 1020 30.12 849 25.07 1.1 34 49 -8.4 16.9
05:20 1020 30.12 849 25.07 1.4 34.6 48 -8.5 16.8
05:25 1020 30.12 849 25.07 1.8 35.2 46 -8.6 16.5
05:30 1020 30.12 849 25.07 1.9 35.4 47 -8.3 17
05:35 1020 30.12 849 25.07 1.8 35.3 47 -8.4 16.9
05:40 1020 30.12 849 25.07 1.8 35.2 47 -8.3 17.1
05:45 1020 30.12 849 25.07 2 35.6 47 -8.3 17.1
05:50 1020 30.12 849 25.07 2 35.6 47 -8.1 17.4
05:55 1020 30.12 849 25.07 1.9 35.5 48 -8 17.7
06:00 1020 30.12 849 25.07 2 35.5 48 -8 17.5
06:05 1020 30.12 849 25.07 2.1 35.8 46 -8.3 17.1
06:10 1020 30.12 849 25.07 2.2 35.9 46 -8.2 17.3
06:15 1020 30.12 849 25.07 2.1 35.8 47 -8.2 17.3
06:20 1020 30.12 849 25.07 2 35.7 47 -8.2 17.3
06:25 1020 30.12 849 25.07 2.1 35.8 45 -8.6 16.4
06:30 1020 30.12 849 25.07 2.3 36.1 44 -8.6 16.4
06:35 1020 30.12 850 25.1 2.3 36.2 45 -8.4 16.9
06:40 1020 30.12 850 25.1 2.1 35.8 48 -7.7 18.1
06:45 1020 30.12 850 25.1 1.8 35.2 47 -8.4 16.8
06:50 1020 30.12 850 25.1 2 35.5 45 -8.7 16.4
06:55 1020 30.12 850 25.1 2 35.6 45 -8.6 16.5
07:00 1020 30.12 850 25.1 1.9 35.4 46 -8.5 16.7
07:05 1020 30.12 850 25.1 1.9 35.3 46 -8.5 16.6
07:10 1020 30.12 849 25.07 2 35.5 44 -9.2 15.5
07:15 1020 30.12 849 25.07 2.3 36.2 43 -9.1 15.5
07:20 1020 30.12 849 25.07 2.3 36.2 48 -7.7 18.1
07:25 1020 30.12 849 25.07 1.1 34 50 -8.2 17.2
07:30 1020 30.12 849 25.07 0.9 33.6 50 -8.4 16.9
07:35 1020 30.12 849 25.07 0.8 33.4 50 -8.5 16.7
07:40 1020 30.12 849 25.07 1.1 33.9 50 -8.3 17
07:45 1020 30.12 849 25.07 0.9 33.6 49 -8.6 16.5
07:50 1020 30.12 849 25.07 1.4 34.5 46 -9 15.8
07:55 1020 30.12 849 25.07 1.6 34.8 47 -8.6 16.5
08:00 1020 30.12 849 25.07 1 33.7 54 -7.3 18.9
08:05 1020 30.12 849 25.07 -0.1 31.8 58 -7.5 18.5
08:10 1019 30.09 849 25.07 -0.4 31.3 58 -7.7 18.2
08:15 1019 30.09 849 25.07 -0.4 31.4 57 -7.9 17.8
08:20 1019 30.09 848 25.04 -0 31.9 54 -8.4 17
08:25 1019 30.09 848 25.04 0.4 32.8 52 -8.4 16.9
08:30 1019 30.09 848 25.04 0.6 33.1 50 -8.7 16.4
08:35 1019 30.09 848 25.04 1 33.8 49 -8.6 16.6
08:40 1019 30.09 848 25.04 1.2 34.1 49 -8.5 16.7
08:45 1019 30.09 848 25.04 1.1 34 49 -8.4 16.9
08:50 1019 30.09 848 25.04 1.1 34 48 -8.6 16.6
08:55 1019 30.09 848 25.04 1.4 34.5 47 -8.8 16.1
09:00 1019 30.09 848 25.04 1.5 34.7 47 -8.8 16.2
09:05 1019 30.09 848 25.04 1.7 35.1 45 -9 15.8
09:10 1019 30.09 848 25.04 1.7 35.1 45 -8.9 15.9
09:15 1019 30.09 848 25.04 1.6 34.9 46 -8.7 16.4
09:20 1019 30.09 848 25.04 1.6 34.9 46 -8.9 16
09:25 1019 30.09 848 25.04 1.6 35 47 -8.6 16.5
09:30 1019 30.09 848 25.04 1.6 34.8 46 -8.8 16.1
09:35 1019 30.09 848 25.04 1.7 35.1 46 -8.8 16.1
09:40 1019 30.09 848 25.04 1.9 35.4 44 -9.2 15.4
09:45 1019 30.09 848 25.04 2.2 35.9 43 -9.2 15.4
09:50 1019 30.09 848 25.04 1.8 35.2 46 -8.5 16.7
09:55 1019 30.09 848 25.04 1.9 35.5 44 -9.2 15.5
10:00 1018 30.06 848 25.04 2.1 35.8 43 -9 15.7
10:05 1019 30.09 848 25.04 2 35.6 44 -8.9 16
10:10 1019 30.09 848 25.04 1.9 35.4 47 -8.4 17
10:15 1019 30.09 848 25.04 1.9 35.5 43 -9.4 15
10:20 1019 30.09 848 25.04 2.5 36.5 41 -9.5 14.8
10:25 1018 30.06 848 25.04 2.9 37.2 35 -11.1 12
10:30 1018 30.06 848 25.04 3.7 38.6 39 -8.9 16
10:35 1018 30.06 848 25.04 3.6 38.6 35 -10.3 13.5
10:40 1018 30.06 848 25.04 3.8 38.9 36 -10.1 13.9
10:45 1018 30.06 848 25.04 3.7 38.7 37 -9.6 14.6
10:50 1018 30.06 848 25.04 3.6 38.6 37 -9.6 14.7
10:55 1018 30.06 848 25.04 3.9 38.9 37 -9.4 15
11:00 1019 30.09 848 25.04 4.2 39.6 37 -9.3 15.3
11:05 1019 30.09 848 25.04 4.2 39.5 36 -9.5 14.9
11:10 1019 30.09 848 25.04 4.5 40 36 -9.5 14.9
11:15 1019 30.09 848 25.04 4.3 39.8 35 -9.9 14.2
11:20 1019 30.09 848 25.04 4.8 40.6 34 -10 14.1
11:25 1019 30.09 848 25.04 4.9 40.8 34 -9.8 14.4
11:30 1019 30.09 848 25.04 5.6 42 33 -9.4 15.2
11:35 1019 30.09 848 25.04 5.8 42.5 32 -9.6 14.8
11:40 1019 30.09 848 25.04 5.7 42.3 34 -9 15.8
11:45 1019 30.09 848 25.04 5.9 42.6 33 -9.3 15.2
11:50 1019 30.09 848 25.04 6.1 42.9 32 -9.6 14.8
11:55 1019 30.09 848 25.04 6.3 43.3 31 -9.7 14.5
12:00 1019 30.09 848 25.04 6.8 44.2 31 -9.3 15.2
12:05 1019 30.09 848 25.04 6.8 44.2 31 -9.2 15.4
12:10 1019 30.09 848 25.04 6.9 44.5 30 -9.3 15.2
12:15 1019 30.09 848 25.04 7.4 45.3 32 -8.1 17.4
12:20 1019 30.09 848 25.04 7.3 45.2 35 -7.1 19.1
12:25 1019 30.09 848 25.04 6.9 44.4 37 -6.6 20
12:30 1019 30.09 848 25.04 7 44.5 36 -7.1 19.2
12:35 1019 30.09 848 25.04 7.2 45 36 -6.7 19.9
12:40 1019 30.09 848 25.04 7.2 44.9 37 -6.6 20
12:45 1019 30.09 848 25.04 7.2 44.9 35 -7.3 18.8
12:50 1019 30.09 848 25.04 7.1 44.8 34 -7.8 18
12:55 1018 30.06 848 25.04 6.9 44.4 38 -6.3 20.7
13:00 1018 30.06 848 25.04 6.4 43.6 41 -5.8 21.5
13:05 1018 30.06 848 25.04 6 42.8 39 -7 19.3
13:10 1018 30.06 848 25.04 6 42.8 39 -7 19.4
13:15 1018 30.06 847 25.01 5.9 42.5 42 -6.1 21
13:20 1018 30.06 847 25.01 5.5 41.8 42 -6.3 20.6
13:25 1018 30.06 847 25.01 5.4 41.8 44 -6 21.3
13:30 1018 30.06 847 25.01 5.6 42.1 43 -6.1 21.1
13:35 1018 30.06 847 25.01 5.2 41.4 45 -5.9 21.4
13:40 1018 30.06 847 25.01 4.7 40.4 45 -6.2 20.8
13:45 1018 30.06 847 25.01 5 41 43 -6.5 20.3
13:50 1018 30.06 847 25.01 4.9 40.8 44 -6.4 20.5
13:55 1018 30.06 847 25.01 4.9 40.8 41 -7.4 18.6
14:00 1018 30.06 847 25.01 4.9 40.8 42 -7.1 19.2
14:05 1018 30.06 847 25.01 4.6 40.2 43 -7 19.3
14:10 1018 30.06 847 25.01 4.3 39.7 42 -7.6 18.3
14:15 1018 30.06 847 25.01 4.3 39.8 39 -8.6 16.5
14:20 1018 30.06 847 25.01 4.5 40.1 37 -8.8 16.1
14:25 1018 30.06 847 25.01 4.6 40.4 39 -8.1 17.5
14:30 1018 30.06 847 25.01 4.8 40.6 36 -9.1 15.7
14:35 1017 30.03 847 25.01 4.8 40.7 39 -8 17.6
14:40 1017 30.03 847 25.01 4.8 40.6 41 -7.4 18.7
14:45 1017 30.03 847 25.01 5.1 41.2 40 -7.4 18.7
14:50 1017 30.03 847 25.01 5.7 42.2 38 -7.6 18.4
14:55 1017 30.03 847 25.01 5.8 42.5 36 -8 17.5
15:00 1017 30.03 847 25.01 6.2 43.1 36 -8 17.7
15:05 1017 30.03 847 25.01 6.5 43.7 37 -7.3 18.9
15:10 1017 30.03 847 25.01 6.8 44.2 34 -8 17.5
15:15 1017 30.03 847 25.01 6.6 43.8 36 -7.5 18.6
15:20 1017 30.03 847 25.01 6.5 43.8 33 -8.7 16.3
15:25 1017 30.03 846 24.98 6.6 43.9 35 -7.9 17.7
15:30 1017 30.03 846 24.98 6.2 43.1 34 -8.5 16.7
15:35 1017 30.03 846 24.98 5.9 42.5 34 -9 15.8
15:40 1017 30.03 846 24.98 5.7 42.3 33 -9.4 15.1
15:45 1017 30.03 846 24.98 5.5 41.9 32 -9.8 14.3
15:50 1017 30.03 846 24.98 5.6 42.1 32 -10 14
15:55 1017 30.03 847 25.01 5.6 42.1 31 -10.1 13.8
16:00 1017 30.03 847 25.01 5.7 42.2 30 -10.5 13.1
16:05 1017 30.03 846 24.98 5.8 42.4 30 -10.4 13.3
16:10 1017 30.03 847 25.01 5.7 42.3 31 -10.2 13.7
16:15 1017 30.03 847 25.01 5.8 42.4 32 -9.8 14.3
16:20 1017 30.03 847 25.01 5.8 42.5 33 -9.1 15.5
16:25 1017 30.03 847 25.01 5.7 42.2 34 -9.1 15.6
16:30 1017 30.03 847 25.01 6 42.8 32 -9.4 15.1
16:35 1017 30.03 847 25.01 6.3 43.4 32 -9 15.8
16:40 1017 30.03 846 24.98 6.2 43.1 32 -9.2 15.5
16:45 1017 30.03 847 25.01 6 42.8 34 -8.8 16.1
16:50 1017 30.03 847 25.01 6 42.8 33 -9.3 15.3
16:55 1017 30.03 847 25.01 6 42.8 33 -9 15.8
17:00 1017 30.03 847 25.01 6 42.7 33 -9.2 15.5
17:05 1017 30.03 847 25.01 6 42.8 32 -9.5 14.9
17:10 1017 30.03 847 25.01 6 42.9 31 -9.7 14.6
17:15 1017 30.03 847 25.01 6 42.9 32 -9.5 14.9
17:20 1017 30.03 847 25.01 6 42.8 31 -10.1 13.8
17:25 1017 30.03 847 25.01 6.1 43.1 30 -10.2 13.6
17:30 1017 30.03 847 25.01 6.1 43 29 -10.8 12.5
17:35 1017 30.03 847 25.01 6.2 43.1 28 -11.2 11.8
17:40 1017 30.03 847 25.01 6.1 42.9 30 -10.1 13.9
17:45 1017 30.03 847 25.01 5.8 42.5 33 -9.4 15
17:50 1017 30.03 847 25.01 5.8 42.5 32 -9.4 15
17:55 1017 30.03 847 25.01 5.3 41.6 34 -9.4 15
18:00 1017 30.03 847 25.01 5.5 41.9 28 -11.8 10.8
18:05 1017 30.03 847 25.01 6.7 44.1 26 -11.4 11.5
18:10 1017 30.03 847 25.01 7 44.5 27 -10.8 12.6
18:15 1017 30.03 847 25.01 6.9 44.4 27 -11.1 12
18:20 1017 30.03 847 25.01 7 44.6 27 -10.9 12.4
18:25 1017 30.03 847 25.01 7.2 44.9 26 -11.1 12
18:30 1018 30.06 847 25.01 7.4 45.3 24 -11.7 11
18:35 1018 30.06 847 25.01 7.4 45.3 24 -12 10.4
18:40 1018 30.06 847 25.01 7.4 45.4 24 -11.9 10.6
18:45 1018 30.06 847 25.01 7.4 45.2 24 -11.8 10.7
18:50 1018 30.06 847 25.01 7.5 45.4 24 -12 10.5
18:55 1018 30.06 847 25.01 7.9 46.2 23 -12.1 10.2
19:00 1018 30.06 847 25.01 7.7 45.8 24 -11.9 10.5
19:05 1018 30.06 847 25.01 7.6 45.7 24 -12 10.4
19:10 1018 30.06 847 25.01 7.8 46 23 -12 10.3
19:15 1018 30.06 847 25.01 7.9 46.2 24 -11.4 11.4
19:20 1018 30.06 847 25.01 7.6 45.7 25 -11.4 11.5
19:25 1018 30.06 847 25.01 7.3 45.2 25 -11.3 11.7
19:30 1018 30.06 847 25.01 7.1 44.8 27 -10.7 12.8
19:35 1018 30.06 847 25.01 7 44.5 26 -11.3 11.7
19:40 1018 30.06 847 25.01 7 44.5 27 -10.8 12.5
19:45 1018 30.06 847 25.01 6.7 44.1 28 -10.5 13.1
19:50 1018 30.06 847 25.01 6.4 43.6 29 -10.2 13.6
19:55 1018 30.06 847 25.01 6.1 43 31 -9.8 14.3
20:00 1018 30.06 847 25.01 5.7 42.3 30 -10.7 12.8
20:05 1018 30.06 848 25.04 5.8 42.5 30 -10.6 12.9
20:10 1018 30.06 848 25.04 5.8 42.5 29 -11 12.2
20:15 1019 30.09 848 25.04 6.2 43.1 29 -10.7 12.7
20:20 1018 30.06 848 25.04 6 42.8 30 -10.5 13.1
20:25 1019 30.09 848 25.04 6 42.9 29 -10.6 12.9
20:30 1019 30.09 848 25.04 6.2 43.2 28 -10.9 12.4
20:35 1019 30.09 848 25.04 6.2 43.1 30 -10.1 13.9
20:40 1019 30.09 848 25.04 5.5 41.9 35 -8.7 16.4
20:45 1019 30.09 848 25.04 5.1 41.2 33 -10 14
20:50 1018 30.06 848 25.04 5.2 41.4 32 -10 14
20:55 1018 30.06 848 25.04 5.1 41.1 34 -9.7 14.6
21:00 1018 30.06 847 25.01 4.7 40.5 39 -8.2 17.3
21:05 1018 30.06 848 25.04 4.2 39.6 40 -8.3 17
21:10 1018 30.06 848 25.04 4.3 39.7 41 -8 17.6
21:15 1018 30.06 848 25.04 4.2 39.5 45 -6.8 19.7
21:20 1018 30.06 848 25.04 3.5 38.4 44 -7.6 18.3
21:25 1019 30.09 848 25.04 3.8 38.8 37 -9.6 14.8
21:30 1019 30.09 848 25.04 4.5 40.2 39 -8.3 17.1
21:35 1019 30.09 848 25.04 4.8 40.7 35 -9.3 15.2
21:40 1019 30.09 848 25.04 5.3 41.6 36 -8.6 16.6
21:45 1019 30.09 848 25.04 5.3 41.6 33 -9.6 14.8
21:50 1019 30.09 848 25.04 5.5 41.9 33 -9.5 14.9
21:55 1019 30.09 848 25.04 5.7 42.3 33 -9.4 15
22:00 1019 30.09 848 25.04 5.7 42.3 34 -9.1 15.7
22:05 1019 30.09 848 25.04 5.7 42.2 33 -9.4 15.1
22:10 1019 30.09 848 25.04 5.8 42.5 34 -9 15.8
22:15 1019 30.09 848 25.04 5.7 42.3 34 -9.1 15.6
22:20 1019 30.09 848 25.04 5.4 41.6 34 -9.5 15
22:25 1019 30.09 848 25.04 5.3 41.6 33 -9.8 14.4
22:30 1019 30.09 849 25.07 5.4 41.8 34 -9.2 15.5
22:35 1020 30.12 849 25.07 5.2 41.4 36 -8.6 16.6
22:40 1020 30.12 849 25.07 5 40.9 35 -9.1 15.6
22:45 1020 30.12 849 25.07 5 41 34 -9.6 14.8
22:50 1020 30.12 849 25.07 5.2 41.4 35 -8.8 16.1
22:55 1020 30.12 849 25.07 5.1 41.3 35 -9 15.9
23:00 1020 30.12 849 25.07 5 41.1 36 -8.8 16.2
23:05 1020 30.12 849 25.07 5 40.9 37 -8.4 16.8
23:10 1020 30.12 849 25.07 4.8 40.6 38 -8.3 17
23:15 1020 30.12 849 25.07 4.6 40.3 40 -8 17.6
23:20 1020 30.12 849 25.07 4.5 40.1 40 -7.9 17.7
23:25 1020 30.12 850 25.1 4.4 39.9 41 -7.9 17.8
23:30 1020 30.12 850 25.1 4.3 39.8 42 -7.6 18.3
23:35 1020 30.12 850 25.1 4.3 39.7 41 -7.8 18
23:40 1021 30.15 850 25.1 4.1 39.4 44 -7.1 19.2
23:45 1020 30.12 850 25.1 3.6 38.5 46 -6.9 19.6
23:50 1021 30.15 850 25.1 3.2 37.8 48 -6.8 19.7
23:55 1021 30.15 850 25.1 3.2 37.8 46 -7.2 19
24:00 1021 30.15 850 25.1 3.4 38.1 44 -7.8 17.9